sensor_id;sensor_type;location;lat;lon;timestamp;P1;durP1;ratioP1;P2;durP2;ratioP2
52590;SDS011;38483;42.620;25.394;2023-04-03T00:01:06;2.13;;;1.57;;
52590;SDS011;38483;42.620;25.394;2023-04-03T00:03:33;1.37;;;1.27;;
52590;SDS011;38483;42.620;25.394;2023-04-03T00:06:00;1.80;;;1.40;;
52590;SDS011;38483;42.620;25.394;2023-04-03T00:08:27;3.87;;;1.47;;
52590;SDS011;38483;42.620;25.394;2023-04-03T00:10:56;1.73;;;1.50;;
52590;SDS011;38483;42.620;25.394;2023-04-03T00:13:24;2.43;;;1.50;;
52590;SDS011;38483;42.620;25.394;2023-04-03T00:15:51;1.90;;;1.50;;
52590;SDS011;38483;42.620;25.394;2023-04-03T00:18:19;2.33;;;2.00;;
52590;SDS011;38483;42.620;25.394;2023-04-03T00:20:46;1.93;;;1.60;;
52590;SDS011;38483;42.620;25.394;2023-04-03T00:23:13;2.50;;;2.10;;
52590;SDS011;38483;42.620;25.394;2023-04-03T00:25:40;2.43;;;1.73;;
52590;SDS011;38483;42.620;25.394;2023-04-03T00:28:08;3.07;;;2.10;;
52590;SDS011;38483;42.620;25.394;2023-04-03T00:30:35;3.57;;;2.00;;
52590;SDS011;38483;42.620;25.394;2023-04-03T00:33:02;2.40;;;1.70;;
52590;SDS011;38483;42.620;25.394;2023-04-03T00:35:29;2.50;;;1.83;;
52590;SDS011;38483;42.620;25.394;2023-04-03T00:37:56;2.33;;;1.70;;
52590;SDS011;38483;42.620;25.394;2023-04-03T00:40:24;2.83;;;2.10;;
52590;SDS011;38483;42.620;25.394;2023-04-03T00:42:57;2.93;;;2.30;;
52590;SDS011;38483;42.620;25.394;2023-04-03T00:45:30;4.27;;;1.83;;
52590;SDS011;38483;42.620;25.394;2023-04-03T00:47:59;2.00;;;1.80;;
52590;SDS011;38483;42.620;25.394;2023-04-03T00:50:28;3.43;;;2.00;;
52590;SDS011;38483;42.620;25.394;2023-04-03T00:52:56;1.97;;;1.80;;
52590;SDS011;38483;42.620;25.394;2023-04-03T00:55:24;2.27;;;1.83;;
52590;SDS011;38483;42.620;25.394;2023-04-03T00:57:51;2.83;;;2.20;;
52590;SDS011;38483;42.620;25.394;2023-04-03T01:00:20;2.87;;;2.40;;
52590;SDS011;38483;42.620;25.394;2023-04-03T01:02:49;2.70;;;2.30;;
52590;SDS011;38483;42.620;25.394;2023-04-03T01:05:18;3.03;;;2.27;;
52590;SDS011;38483;42.620;25.394;2023-04-03T01:07:47;3.33;;;2.10;;
52590;SDS011;38483;42.620;25.394;2023-04-03T01:10:16;2.90;;;2.23;;
52590;SDS011;38483;42.620;25.394;2023-04-03T01:12:44;3.77;;;2.20;;
52590;SDS011;38483;42.620;25.394;2023-04-03T01:15:15;4.93;;;3.03;;
52590;SDS011;38483;42.620;25.394;2023-04-03T01:17:52;7.17;;;3.13;;
52590;SDS011;38483;42.620;25.394;2023-04-03T01:25:37;3.60;;;2.50;;
52590;SDS011;38483;42.620;25.394;2023-04-03T01:28:15;4.27;;;3.07;;
52590;SDS011;38483;42.620;25.394;2023-04-03T01:33:43;3.17;;;2.83;;
52590;SDS011;38483;42.620;25.394;2023-04-03T01:36:14;2.27;;;2.07;;
52590;SDS011;38483;42.620;25.394;2023-04-03T01:38:46;2.10;;;1.90;;
52590;SDS011;38483;42.620;25.394;2023-04-03T01:41:13;2.57;;;2.10;;
52590;SDS011;38483;42.620;25.394;2023-04-03T01:43:41;2.90;;;2.23;;
52590;SDS011;38483;42.620;25.394;2023-04-03T01:46:08;4.23;;;2.70;;
52590;SDS011;38483;42.620;25.394;2023-04-03T01:48:37;3.17;;;2.50;;
52590;SDS011;38483;42.620;25.394;2023-04-03T01:51:04;3.13;;;2.60;;
52590;SDS011;38483;42.620;25.394;2023-04-03T01:53:31;3.50;;;2.23;;
52590;SDS011;38483;42.620;25.394;2023-04-03T01:55:58;3.93;;;2.60;;
52590;SDS011;38483;42.620;25.394;2023-04-03T01:58:25;3.07;;;2.30;;
52590;SDS011;38483;42.620;25.394;2023-04-03T02:00:53;2.20;;;2.00;;
52590;SDS011;38483;42.620;25.394;2023-04-03T02:03:21;3.57;;;2.33;;
52590;SDS011;38483;42.620;25.394;2023-04-03T02:05:49;2.83;;;2.13;;
52590;SDS011;38483;42.620;25.394;2023-04-03T02:08:16;5.13;;;2.50;;
52590;SDS011;38483;42.620;25.394;2023-04-03T02:10:47;3.23;;;2.60;;
52590;SDS011;38483;42.620;25.394;2023-04-03T02:13:15;3.10;;;2.60;;
52590;SDS011;38483;42.620;25.394;2023-04-03T02:15:44;4.30;;;2.57;;
52590;SDS011;38483;42.620;25.394;2023-04-03T02:18:15;6.73;;;2.83;;
52590;SDS011;38483;42.620;25.394;2023-04-03T02:20:42;3.83;;;2.73;;
52590;SDS011;38483;42.620;25.394;2023-04-03T02:23:10;4.63;;;2.30;;
52590;SDS011;38483;42.620;25.394;2023-04-03T02:25:37;3.23;;;2.50;;
52590;SDS011;38483;42.620;25.394;2023-04-03T02:28:04;3.73;;;2.60;;
52590;SDS011;38483;42.620;25.394;2023-04-03T02:30:32;3.63;;;2.67;;
52590;SDS011;38483;42.620;25.394;2023-04-03T02:32:59;5.67;;;2.70;;
52590;SDS011;38483;42.620;25.394;2023-04-03T02:35:26;5.03;;;2.67;;
52590;SDS011;38483;42.620;25.394;2023-04-03T02:37:55;3.07;;;2.50;;
52590;SDS011;38483;42.620;25.394;2023-04-03T02:40:23;3.50;;;2.73;;
52590;SDS011;38483;42.620;25.394;2023-04-03T02:42:50;3.87;;;2.63;;
52590;SDS011;38483;42.620;25.394;2023-04-03T02:45:18;3.70;;;2.73;;
52590;SDS011;38483;42.620;25.394;2023-04-03T02:47:45;4.50;;;3.00;;
52590;SDS011;38483;42.620;25.394;2023-04-03T02:50:12;4.13;;;2.80;;
52590;SDS011;38483;42.620;25.394;2023-04-03T02:52:39;3.90;;;2.80;;
52590;SDS011;38483;42.620;25.394;2023-04-03T02:55:06;4.90;;;2.70;;
52590;SDS011;38483;42.620;25.394;2023-04-03T02:57:34;3.93;;;2.33;;
52590;SDS011;38483;42.620;25.394;2023-04-03T03:00:02;2.90;;;2.30;;
52590;SDS011;38483;42.620;25.394;2023-04-03T03:02:29;3.60;;;1.93;;
52590;SDS011;38483;42.620;25.394;2023-04-03T03:04:56;2.10;;;1.80;;
52590;SDS011;38483;42.620;25.394;2023-04-03T03:07:23;2.57;;;2.20;;
52590;SDS011;38483;42.620;25.394;2023-04-03T03:09:51;3.57;;;2.23;;
52590;SDS011;38483;42.620;25.394;2023-04-03T03:12:18;2.47;;;2.27;;
52590;SDS011;38483;42.620;25.394;2023-04-03T03:14:49;3.53;;;2.10;;
52590;SDS011;38483;42.620;25.394;2023-04-03T03:17:16;4.40;;;2.20;;
52590;SDS011;38483;42.620;25.394;2023-04-03T03:19:43;2.70;;;2.00;;
52590;SDS011;38483;42.620;25.394;2023-04-03T03:22:12;3.43;;;2.17;;
52590;SDS011;38483;42.620;25.394;2023-04-03T03:24:39;2.87;;;2.30;;
52590;SDS011;38483;42.620;25.394;2023-04-03T03:27:06;2.87;;;2.27;;
52590;SDS011;38483;42.620;25.394;2023-04-03T03:29:33;4.60;;;2.60;;
52590;SDS011;38483;42.620;25.394;2023-04-03T03:32:01;3.37;;;2.40;;
52590;SDS011;38483;42.620;25.394;2023-04-03T03:34:28;5.77;;;3.63;;
52590;SDS011;38483;42.620;25.394;2023-04-03T03:36:55;4.97;;;3.70;;
52590;SDS011;38483;42.620;25.394;2023-04-03T03:39:22;3.73;;;3.37;;
52590;SDS011;38483;42.620;25.394;2023-04-03T03:41:49;7.10;;;4.13;;
52590;SDS011;38483;42.620;25.394;2023-04-03T03:44:16;7.53;;;4.77;;
52590;SDS011;38483;42.620;25.394;2023-04-03T03:46:43;6.23;;;4.10;;
52590;SDS011;38483;42.620;25.394;2023-04-03T03:49:11;4.27;;;3.70;;
52590;SDS011;38483;42.620;25.394;2023-04-03T03:51:39;4.40;;;3.60;;
52590;SDS011;38483;42.620;25.394;2023-04-03T03:54:07;6.93;;;4.10;;
52590;SDS011;38483;42.620;25.394;2023-04-03T03:56:35;6.23;;;3.87;;
52590;SDS011;38483;42.620;25.394;2023-04-03T03:59:02;9.97;;;4.83;;
52590;SDS011;38483;42.620;25.394;2023-04-03T04:01:30;7.23;;;4.90;;
52590;SDS011;38483;42.620;25.394;2023-04-03T04:03:58;6.33;;;4.30;;
52590;SDS011;38483;42.620;25.394;2023-04-03T04:06:29;7.50;;;4.30;;
52590;SDS011;38483;42.620;25.394;2023-04-03T04:09:00;9.97;;;4.50;;
52590;SDS011;38483;42.620;25.394;2023-04-03T04:11:29;8.90;;;4.83;;
52590;SDS011;38483;42.620;25.394;2023-04-03T04:13:56;7.03;;;5.30;;
52590;SDS011;38483;42.620;25.394;2023-04-03T04:16:26;10.17;;;6.93;;
52590;SDS011;38483;42.620;25.394;2023-04-03T04:18:55;15.23;;;7.53;;
52590;SDS011;38483;42.620;25.394;2023-04-03T04:21:23;11.27;;;6.53;;
52590;SDS011;38483;42.620;25.394;2023-04-03T04:23:52;11.53;;;7.47;;
52590;SDS011;38483;42.620;25.394;2023-04-03T04:26:19;11.00;;;7.97;;
52590;SDS011;38483;42.620;25.394;2023-04-03T04:28:47;8.80;;;6.50;;
52590;SDS011;38483;42.620;25.394;2023-04-03T04:31:15;6.80;;;5.33;;
52590;SDS011;38483;42.620;25.394;2023-04-03T04:33:42;13.50;;;5.10;;
52590;SDS011;38483;42.620;25.394;2023-04-03T04:36:12;11.07;;;6.17;;
52590;SDS011;38483;42.620;25.394;2023-04-03T04:38:43;10.90;;;5.93;;
52590;SDS011;38483;42.620;25.394;2023-04-03T04:41:11;17.93;;;8.20;;
52590;SDS011;38483;42.620;25.394;2023-04-03T04:43:38;10.87;;;5.37;;
52590;SDS011;38483;42.620;25.394;2023-04-03T04:46:06;5.73;;;4.30;;
52590;SDS011;38483;42.620;25.394;2023-04-03T04:48:44;7.10;;;3.93;;
52590;SDS011;38483;42.620;25.394;2023-04-03T04:51:12;7.53;;;5.13;;
52590;SDS011;38483;42.620;25.394;2023-04-03T04:53:40;5.93;;;4.90;;
52590;SDS011;38483;42.620;25.394;2023-04-03T04:56:08;9.43;;;5.50;;
52590;SDS011;38483;42.620;25.394;2023-04-03T04:58:37;11.80;;;5.33;;
52590;SDS011;38483;42.620;25.394;2023-04-03T05:01:05;5.50;;;4.23;;
52590;SDS011;38483;42.620;25.394;2023-04-03T05:03:38;9.70;;;5.27;;
52590;SDS011;38483;42.620;25.394;2023-04-03T05:06:05;6.97;;;5.17;;
52590;SDS011;38483;42.620;25.394;2023-04-03T05:08:34;5.60;;;4.53;;
52590;SDS011;38483;42.620;25.394;2023-04-03T05:11:02;5.90;;;4.00;;
52590;SDS011;38483;42.620;25.394;2023-04-03T05:13:30;4.60;;;3.43;;
52590;SDS011;38483;42.620;25.394;2023-04-03T05:15:57;3.57;;;3.23;;
52590;SDS011;38483;42.620;25.394;2023-04-03T05:18:24;6.70;;;3.73;;
52590;SDS011;38483;42.620;25.394;2023-04-03T05:20:55;4.37;;;3.20;;
52590;SDS011;38483;42.620;25.394;2023-04-03T05:23:24;3.83;;;3.00;;
52590;SDS011;38483;42.620;25.394;2023-04-03T05:25:52;3.83;;;2.83;;
52590;SDS011;38483;42.620;25.394;2023-04-03T05:28:20;4.03;;;2.63;;
52590;SDS011;38483;42.620;25.394;2023-04-03T05:30:55;3.50;;;2.73;;
52590;SDS011;38483;42.620;25.394;2023-04-03T05:33:26;4.70;;;2.83;;
52590;SDS011;38483;42.620;25.394;2023-04-03T05:35:56;3.30;;;3.00;;
52590;SDS011;38483;42.620;25.394;2023-04-03T05:38:26;6.07;;;3.67;;
52590;SDS011;38483;42.620;25.394;2023-04-03T05:40:56;5.13;;;3.17;;
52590;SDS011;38483;42.620;25.394;2023-04-03T05:43:23;3.90;;;3.43;;
52590;SDS011;38483;42.620;25.394;2023-04-03T05:45:51;3.40;;;3.10;;
52590;SDS011;38483;42.620;25.394;2023-04-03T05:48:20;3.50;;;3.20;;
52590;SDS011;38483;42.620;25.394;2023-04-03T05:50:47;8.23;;;3.30;;
52590;SDS011;38483;42.620;25.394;2023-04-03T05:53:21;7.57;;;3.10;;
52590;SDS011;38483;42.620;25.394;2023-04-03T05:55:55;5.97;;;3.10;;
52590;SDS011;38483;42.620;25.394;2023-04-03T05:58:23;5.10;;;3.70;;
52590;SDS011;38483;42.620;25.394;2023-04-03T06:00:51;4.13;;;3.13;;
52590;SDS011;38483;42.620;25.394;2023-04-03T06:03:19;4.07;;;3.17;;
52590;SDS011;38483;42.620;25.394;2023-04-03T06:05:46;8.57;;;4.83;;
52590;SDS011;38483;42.620;25.394;2023-04-03T06:08:13;8.87;;;5.00;;
52590;SDS011;38483;42.620;25.394;2023-04-03T06:10:41;8.97;;;4.53;;
52590;SDS011;38483;42.620;25.394;2023-04-03T06:13:08;6.27;;;4.33;;
52590;SDS011;38483;42.620;25.394;2023-04-03T06:15:35;4.37;;;2.80;;
52590;SDS011;38483;42.620;25.394;2023-04-03T06:18:02;6.20;;;3.00;;
52590;SDS011;38483;42.620;25.394;2023-04-03T06:20:29;4.73;;;3.30;;
52590;SDS011;38483;42.620;25.394;2023-04-03T06:22:57;4.03;;;3.10;;
52590;SDS011;38483;42.620;25.394;2023-04-03T06:25:26;6.30;;;2.70;;
52590;SDS011;38483;42.620;25.394;2023-04-03T06:27:54;2.67;;;2.47;;
52590;SDS011;38483;42.620;25.394;2023-04-03T06:30:22;4.97;;;2.73;;
52590;SDS011;38483;42.620;25.394;2023-04-03T06:32:49;4.57;;;2.90;;
52590;SDS011;38483;42.620;25.394;2023-04-03T06:35:17;5.23;;;3.23;;
52590;SDS011;38483;42.620;25.394;2023-04-03T06:37:44;5.13;;;3.20;;
52590;SDS011;38483;42.620;25.394;2023-04-03T06:40:15;8.77;;;4.60;;
52590;SDS011;38483;42.620;25.394;2023-04-03T06:42:47;17.10;;;7.00;;
52590;SDS011;38483;42.620;25.394;2023-04-03T06:45:16;8.37;;;4.90;;
52590;SDS011;38483;42.620;25.394;2023-04-03T06:47:44;9.43;;;4.93;;
52590;SDS011;38483;42.620;25.394;2023-04-03T06:50:11;8.67;;;4.00;;
52590;SDS011;38483;42.620;25.394;2023-04-03T06:52:46;6.30;;;4.37;;
52590;SDS011;38483;42.620;25.394;2023-04-03T06:55:13;6.80;;;3.97;;
52590;SDS011;38483;42.620;25.394;2023-04-03T06:57:40;6.60;;;3.83;;
52590;SDS011;38483;42.620;25.394;2023-04-03T07:00:07;5.87;;;3.43;;
52590;SDS011;38483;42.620;25.394;2023-04-03T07:02:36;5.27;;;4.13;;
52590;SDS011;38483;42.620;25.394;2023-04-03T07:05:03;5.40;;;3.20;;
52590;SDS011;38483;42.620;25.394;2023-04-03T07:07:31;6.53;;;3.30;;
52590;SDS011;38483;42.620;25.394;2023-04-03T07:09:59;5.20;;;3.63;;
52590;SDS011;38483;42.620;25.394;2023-04-03T07:12:28;14.60;;;4.70;;
52590;SDS011;38483;42.620;25.394;2023-04-03T07:14:55;8.37;;;5.20;;
52590;SDS011;38483;42.620;25.394;2023-04-03T07:17:22;9.30;;;5.30;;
52590;SDS011;38483;42.620;25.394;2023-04-03T07:19:49;10.97;;;5.27;;
52590;SDS011;38483;42.620;25.394;2023-04-03T07:22:16;9.30;;;4.77;;
52590;SDS011;38483;42.620;25.394;2023-04-03T07:24:43;11.10;;;5.67;;
52590;SDS011;38483;42.620;25.394;2023-04-03T07:27:11;10.90;;;6.60;;
52590;SDS011;38483;42.620;25.394;2023-04-03T07:29:39;7.23;;;4.63;;
52590;SDS011;38483;42.620;25.394;2023-04-03T07:32:06;9.07;;;5.10;;
52590;SDS011;38483;42.620;25.394;2023-04-03T07:34:33;12.07;;;6.37;;
52590;SDS011;38483;42.620;25.394;2023-04-03T07:37:00;13.07;;;5.37;;
52590;SDS011;38483;42.620;25.394;2023-04-03T07:39:29;15.00;;;9.23;;
52590;SDS011;38483;42.620;25.394;2023-04-03T07:41:56;11.07;;;6.50;;
52590;SDS011;38483;42.620;25.394;2023-04-03T07:44:23;9.80;;;5.17;;
52590;SDS011;38483;42.620;25.394;2023-04-03T07:46:51;14.63;;;5.40;;
52590;SDS011;38483;42.620;25.394;2023-04-03T07:49:18;15.07;;;6.67;;
52590;SDS011;38483;42.620;25.394;2023-04-03T07:51:45;9.20;;;6.33;;
52590;SDS011;38483;42.620;25.394;2023-04-03T07:54:13;10.67;;;6.60;;
52590;SDS011;38483;42.620;25.394;2023-04-03T07:56:40;13.60;;;5.10;;
52590;SDS011;38483;42.620;25.394;2023-04-03T07:59:08;11.13;;;5.97;;
52590;SDS011;38483;42.620;25.394;2023-04-03T08:01:35;9.80;;;5.67;;
52590;SDS011;38483;42.620;25.394;2023-04-03T08:04:02;9.40;;;4.97;;
52590;SDS011;38483;42.620;25.394;2023-04-03T08:06:30;12.03;;;5.33;;
52590;SDS011;38483;42.620;25.394;2023-04-03T08:09:13;10.90;;;6.00;;
52590;SDS011;38483;42.620;25.394;2023-04-03T08:11:43;11.97;;;4.50;;
52590;SDS011;38483;42.620;25.394;2023-04-03T08:14:11;10.83;;;5.63;;
52590;SDS011;38483;42.620;25.394;2023-04-03T08:16:44;16.27;;;6.53;;
52590;SDS011;38483;42.620;25.394;2023-04-03T08:19:12;15.27;;;5.77;;
52590;SDS011;38483;42.620;25.394;2023-04-03T08:21:52;11.73;;;5.70;;
52590;SDS011;38483;42.620;25.394;2023-04-03T08:24:20;10.40;;;6.40;;
52590;SDS011;38483;42.620;25.394;2023-04-03T08:26:47;13.57;;;7.03;;
52590;SDS011;38483;42.620;25.394;2023-04-03T08:29:15;20.03;;;8.70;;
52590;SDS011;38483;42.620;25.394;2023-04-03T08:31:42;4.10;;;3.70;;
52590;SDS011;38483;42.620;25.394;2023-04-03T08:34:09;4.03;;;3.33;;
52590;SDS011;38483;42.620;25.394;2023-04-03T08:36:37;6.50;;;2.70;;
52590;SDS011;38483;42.620;25.394;2023-04-03T08:39:05;5.23;;;2.23;;
52590;SDS011;38483;42.620;25.394;2023-04-03T08:41:36;5.93;;;3.07;;
52590;SDS011;38483;42.620;25.394;2023-04-03T08:49:42;2.87;;;2.20;;
52590;SDS011;38483;42.620;25.394;2023-04-03T08:52:19;4.13;;;2.20;;
52590;SDS011;38483;42.620;25.394;2023-04-03T08:54:51;2.37;;;1.97;;
52590;SDS011;38483;42.620;25.394;2023-04-03T08:57:29;1.57;;;1.47;;
52590;SDS011;38483;42.620;25.394;2023-04-03T09:00:05;2.47;;;1.30;;
52590;SDS011;38483;42.620;25.394;2023-04-03T09:02:46;3.80;;;2.40;;
52590;SDS011;38483;42.620;25.394;2023-04-03T09:05:16;3.17;;;1.50;;
52590;SDS011;38483;42.620;25.394;2023-04-03T09:07:47;4.43;;;1.60;;
52590;SDS011;38483;42.620;25.394;2023-04-03T09:10:19;3.27;;;2.40;;
52590;SDS011;38483;42.620;25.394;2023-04-03T09:12:57;8.83;;;3.90;;
52590;SDS011;38483;42.620;25.394;2023-04-03T09:15:33;8.43;;;3.27;;
52590;SDS011;38483;42.620;25.394;2023-04-03T09:18:07;2.63;;;1.93;;
52590;SDS011;38483;42.620;25.394;2023-04-03T09:20:45;2.90;;;2.20;;
52590;SDS011;38483;42.620;25.394;2023-04-03T09:25:50;4.67;;;2.80;;
52590;SDS011;38483;42.620;25.394;2023-04-03T09:28:19;3.20;;;2.00;;
52590;SDS011;38483;42.620;25.394;2023-04-03T09:30:47;4.33;;;1.90;;
52590;SDS011;38483;42.620;25.394;2023-04-03T09:33:14;4.63;;;2.07;;
52590;SDS011;38483;42.620;25.394;2023-04-03T09:35:43;3.23;;;2.33;;
52590;SDS011;38483;42.620;25.394;2023-04-03T09:38:15;6.00;;;2.20;;
52590;SDS011;38483;42.620;25.394;2023-04-03T09:40:45;6.27;;;2.17;;
52590;SDS011;38483;42.620;25.394;2023-04-03T09:43:22;1.90;;;1.70;;
52590;SDS011;38483;42.620;25.394;2023-04-03T09:45:52;2.93;;;1.87;;
52590;SDS011;38483;42.620;25.394;2023-04-03T09:48:23;3.53;;;1.90;;
52590;SDS011;38483;42.620;25.394;2023-04-03T09:50:57;2.57;;;1.90;;
52590;SDS011;38483;42.620;25.394;2023-04-03T09:55:56;5.63;;;2.60;;
52590;SDS011;38483;42.620;25.394;2023-04-03T09:58:25;2.00;;;1.80;;
52590;SDS011;38483;42.620;25.394;2023-04-03T10:04:12;3.27;;;2.20;;
52590;SDS011;38483;42.620;25.394;2023-04-03T10:06:41;3.67;;;2.30;;
52590;SDS011;38483;42.620;25.394;2023-04-03T10:09:26;2.37;;;2.10;;
52590;SDS011;38483;42.620;25.394;2023-04-03T10:14:34;6.37;;;3.80;;
52590;SDS011;38483;42.620;25.394;2023-04-03T10:22:19;2.10;;;1.90;;
52590;SDS011;38483;42.620;25.394;2023-04-03T10:27:54;2.83;;;2.40;;
52590;SDS011;38483;42.620;25.394;2023-04-03T10:30:32;6.23;;;2.37;;
52590;SDS011;38483;42.620;25.394;2023-04-03T10:47:15;7.73;;;3.60;;
52590;SDS011;38483;42.620;25.394;2023-04-03T10:50:11;4.53;;;2.23;;
52590;SDS011;38483;42.620;25.394;2023-04-03T10:58:28;5.30;;;2.70;;
52590;SDS011;38483;42.620;25.394;2023-04-03T11:01:13;1.77;;;1.50;;
52590;SDS011;38483;42.620;25.394;2023-04-03T11:03:47;2.43;;;1.90;;
52590;SDS011;38483;42.620;25.394;2023-04-03T11:06:19;2.50;;;1.60;;
52590;SDS011;38483;42.620;25.394;2023-04-03T11:12:02;3.57;;;1.80;;
52590;SDS011;38483;42.620;25.394;2023-04-03T11:14:34;3.93;;;2.23;;
52590;SDS011;38483;42.620;25.394;2023-04-03T11:17:20;5.93;;;2.50;;
52590;SDS011;38483;42.620;25.394;2023-04-03T11:26:18;5.57;;;2.40;;
52590;SDS011;38483;42.620;25.394;2023-04-03T11:28:52;8.37;;;2.50;;
52590;SDS011;38483;42.620;25.394;2023-04-03T11:31:26;4.67;;;2.17;;
52590;SDS011;38483;42.620;25.394;2023-04-03T11:37:01;2.20;;;1.80;;
52590;SDS011;38483;42.620;25.394;2023-04-03T11:39:32;3.20;;;2.10;;
52590;SDS011;38483;42.620;25.394;2023-04-03T11:47:50;2.90;;;1.70;;
52590;SDS011;38483;42.620;25.394;2023-04-03T12:03:29;2.10;;;1.90;;
52590;SDS011;38483;42.620;25.394;2023-04-03T12:08:45;5.93;;;3.13;;
52590;SDS011;38483;42.620;25.394;2023-04-03T12:11:24;6.03;;;3.50;;
52590;SDS011;38483;42.620;25.394;2023-04-03T12:16:24;5.83;;;3.87;;
52590;SDS011;38483;42.620;25.394;2023-04-03T12:22:08;7.07;;;3.40;;
52590;SDS011;38483;42.620;25.394;2023-04-03T12:24:50;4.03;;;3.43;;
52590;SDS011;38483;42.620;25.394;2023-04-03T12:29:53;7.73;;;3.33;;
52590;SDS011;38483;42.620;25.394;2023-04-03T12:46:16;6.33;;;4.93;;
52590;SDS011;38483;42.620;25.394;2023-04-03T12:51:25;11.53;;;8.37;;
52590;SDS011;38483;42.620;25.394;2023-04-03T12:54:03;13.07;;;9.23;;
52590;SDS011;38483;42.620;25.394;2023-04-03T12:56:39;9.20;;;6.87;;
52590;SDS011;38483;42.620;25.394;2023-04-03T12:59:15;10.30;;;6.40;;
52590;SDS011;38483;42.620;25.394;2023-04-03T13:01:52;7.37;;;5.43;;
52590;SDS011;38483;42.620;25.394;2023-04-03T13:04:27;10.47;;;5.13;;
52590;SDS011;38483;42.620;25.394;2023-04-03T13:06:57;6.53;;;4.13;;
52590;SDS011;38483;42.620;25.394;2023-04-03T13:09:29;5.30;;;4.17;;
52590;SDS011;38483;42.620;25.394;2023-04-03T13:12:13;8.63;;;4.97;;
52590;SDS011;38483;42.620;25.394;2023-04-03T13:14:52;6.80;;;4.50;;
52590;SDS011;38483;42.620;25.394;2023-04-03T13:17:25;6.97;;;4.80;;
52590;SDS011;38483;42.620;25.394;2023-04-03T13:19:54;12.40;;;5.23;;
52590;SDS011;38483;42.620;25.394;2023-04-03T13:22:34;7.47;;;5.73;;
52590;SDS011;38483;42.620;25.394;2023-04-03T13:25:11;8.27;;;6.40;;
52590;SDS011;38483;42.620;25.394;2023-04-03T13:27:41;8.83;;;6.63;;
52590;SDS011;38483;42.620;25.394;2023-04-03T13:32:58;6.60;;;4.63;;
52590;SDS011;38483;42.620;25.394;2023-04-03T13:35:31;6.20;;;5.27;;
52590;SDS011;38483;42.620;25.394;2023-04-03T13:38:00;7.53;;;5.93;;
52590;SDS011;38483;42.620;25.394;2023-04-03T13:40:30;8.30;;;5.60;;
52590;SDS011;38483;42.620;25.394;2023-04-03T13:43:21;8.57;;;5.30;;
52590;SDS011;38483;42.620;25.394;2023-04-03T13:48:26;7.67;;;5.80;;
52590;SDS011;38483;42.620;25.394;2023-04-03T13:51:05;10.47;;;6.30;;
52590;SDS011;38483;42.620;25.394;2023-04-03T13:53:46;8.53;;;5.90;;
52590;SDS011;38483;42.620;25.394;2023-04-03T13:56:35;39.47;;;16.70;;
52590;SDS011;38483;42.620;25.394;2023-04-03T14:04:13;10.23;;;7.77;;
52590;SDS011;38483;42.620;25.394;2023-04-03T14:06:46;10.63;;;7.63;;
52590;SDS011;38483;42.620;25.394;2023-04-03T14:09:14;14.30;;;10.77;;
52590;SDS011;38483;42.620;25.394;2023-04-03T14:11:44;14.03;;;10.03;;
52590;SDS011;38483;42.620;25.394;2023-04-03T14:14:18;14.27;;;9.47;;
52590;SDS011;38483;42.620;25.394;2023-04-03T14:16:55;17.03;;;11.13;;
52590;SDS011;38483;42.620;25.394;2023-04-03T14:19:32;18.10;;;11.50;;
52590;SDS011;38483;42.620;25.394;2023-04-03T14:22:21;16.67;;;10.23;;
52590;SDS011;38483;42.620;25.394;2023-04-03T14:24:51;12.53;;;9.30;;
52590;SDS011;38483;42.620;25.394;2023-04-03T14:27:20;17.23;;;12.23;;
52590;SDS011;38483;42.620;25.394;2023-04-03T14:29:51;16.73;;;12.03;;
52590;SDS011;38483;42.620;25.394;2023-04-03T14:32:20;17.63;;;10.27;;
52590;SDS011;38483;42.620;25.394;2023-04-03T14:34:48;18.57;;;10.67;;
52590;SDS011;38483;42.620;25.394;2023-04-03T14:37:19;13.73;;;10.43;;
52590;SDS011;38483;42.620;25.394;2023-04-03T14:39:49;14.83;;;9.60;;
52590;SDS011;38483;42.620;25.394;2023-04-03T14:42:18;11.13;;;8.10;;
52590;SDS011;38483;42.620;25.394;2023-04-03T14:44:48;9.77;;;7.77;;
52590;SDS011;38483;42.620;25.394;2023-04-03T14:47:16;13.57;;;8.10;;
52590;SDS011;38483;42.620;25.394;2023-04-03T14:49:57;12.03;;;8.90;;
52590;SDS011;38483;42.620;25.394;2023-04-03T14:52:33;12.73;;;7.77;;
52590;SDS011;38483;42.620;25.394;2023-04-03T14:55:03;11.63;;;7.70;;
52590;SDS011;38483;42.620;25.394;2023-04-03T14:57:32;13.17;;;8.30;;
52590;SDS011;38483;42.620;25.394;2023-04-03T15:00:00;13.53;;;8.60;;
52590;SDS011;38483;42.620;25.394;2023-04-03T15:02:36;15.37;;;9.27;;
52590;SDS011;38483;42.620;25.394;2023-04-03T15:05:06;18.13;;;8.83;;
52590;SDS011;38483;42.620;25.394;2023-04-03T15:07:39;11.70;;;8.53;;
52590;SDS011;38483;42.620;25.394;2023-04-03T15:10:18;9.67;;;6.90;;
52590;SDS011;38483;42.620;25.394;2023-04-03T15:12:49;9.00;;;5.50;;
52590;SDS011;38483;42.620;25.394;2023-04-03T15:15:17;32.27;;;15.03;;
52590;SDS011;38483;42.620;25.394;2023-04-03T15:17:47;21.00;;;12.47;;
52590;SDS011;38483;42.620;25.394;2023-04-03T15:20:18;14.37;;;9.83;;
52590;SDS011;38483;42.620;25.394;2023-04-03T15:22:46;23.67;;;12.60;;
52590;SDS011;38483;42.620;25.394;2023-04-03T15:25:13;20.40;;;11.13;;
52590;SDS011;38483;42.620;25.394;2023-04-03T15:27:40;18.83;;;10.23;;
52590;SDS011;38483;42.620;25.394;2023-04-03T15:30:10;7.90;;;4.87;;
52590;SDS011;38483;42.620;25.394;2023-04-03T15:32:40;8.40;;;4.03;;
52590;SDS011;38483;42.620;25.394;2023-04-03T15:35:07;5.10;;;3.60;;
52590;SDS011;38483;42.620;25.394;2023-04-03T15:37:35;5.83;;;5.03;;
52590;SDS011;38483;42.620;25.394;2023-04-03T15:40:02;11.93;;;6.10;;
52590;SDS011;38483;42.620;25.394;2023-04-03T15:42:30;11.53;;;8.43;;
52590;SDS011;38483;42.620;25.394;2023-04-03T15:44:57;10.60;;;6.43;;
52590;SDS011;38483;42.620;25.394;2023-04-03T15:47:25;5.33;;;4.47;;
52590;SDS011;38483;42.620;25.394;2023-04-03T15:49:53;5.03;;;3.53;;
52590;SDS011;38483;42.620;25.394;2023-04-03T15:52:21;7.30;;;4.83;;
52590;SDS011;38483;42.620;25.394;2023-04-03T15:54:48;9.40;;;5.37;;
52590;SDS011;38483;42.620;25.394;2023-04-03T15:57:16;9.57;;;5.60;;
52590;SDS011;38483;42.620;25.394;2023-04-03T15:59:43;6.93;;;4.60;;
52590;SDS011;38483;42.620;25.394;2023-04-03T16:02:10;10.80;;;5.33;;
52590;SDS011;38483;42.620;25.394;2023-04-03T16:04:40;11.97;;;6.63;;
52590;SDS011;38483;42.620;25.394;2023-04-03T16:07:07;11.87;;;4.90;;
52590;SDS011;38483;42.620;25.394;2023-04-03T16:09:34;7.90;;;5.40;;
52590;SDS011;38483;42.620;25.394;2023-04-03T16:12:02;5.80;;;4.90;;
52590;SDS011;38483;42.620;25.394;2023-04-03T16:14:30;10.53;;;5.90;;
52590;SDS011;38483;42.620;25.394;2023-04-03T16:16:57;16.40;;;7.53;;
52590;SDS011;38483;42.620;25.394;2023-04-03T16:19:29;12.03;;;7.20;;
52590;SDS011;38483;42.620;25.394;2023-04-03T16:21:56;5.23;;;4.13;;
52590;SDS011;38483;42.620;25.394;2023-04-03T16:24:24;7.17;;;5.57;;
52590;SDS011;38483;42.620;25.394;2023-04-03T16:26:51;9.87;;;6.53;;
52590;SDS011;38483;42.620;25.394;2023-04-03T16:29:20;13.53;;;7.30;;
52590;SDS011;38483;42.620;25.394;2023-04-03T16:31:47;14.30;;;8.53;;
52590;SDS011;38483;42.620;25.394;2023-04-03T16:34:14;12.67;;;8.50;;
52590;SDS011;38483;42.620;25.394;2023-04-03T16:36:42;10.57;;;7.70;;
52590;SDS011;38483;42.620;25.394;2023-04-03T16:39:09;9.37;;;7.30;;
52590;SDS011;38483;42.620;25.394;2023-04-03T16:41:36;6.77;;;5.53;;
52590;SDS011;38483;42.620;25.394;2023-04-03T16:44:03;7.97;;;4.87;;
52590;SDS011;38483;42.620;25.394;2023-04-03T16:46:31;6.80;;;5.33;;
52590;SDS011;38483;42.620;25.394;2023-04-03T16:48:58;7.47;;;5.37;;